Ewtrford, Pennsylvania
Current Conditions -  °F | °C
As of 11:53 PM on Wednesday 22 Oct 2014 (Local Time) from KAOO Reporting Station
Overcast Overcast  
Wind Chill: 40°   Ceiling: 1800
Heat Index: 46°   Visibility: 10mi
Dew Point: 40°   Wind: 14mph
Humidity: 79%   Direction: 340°NNW
Pressure: 30.05"   Gusts: 17mph
Location:  40.3617°N, 77.6745°W
Report Text: KAOO 230353Z AUTO 34012G15KT 10SM OVC018 08/04 A3005 RMK AO2 SLP183 T00780044
Loading
Personal Weather Stations






























Interactive Weather Map
Tropical Storm Tracking
New forecast layout! Learn more

10-Day Weather Forecast

Advertisements
Track Severe Weather on mobile